sensor_id;sensor_type;location;lat;lon;timestamp;P1;durP1;ratioP1;P2;durP2;ratioP2
12476;SDS011;6303;51.504;6.300;2023-10-08T00:02:23;1.90;;;1.70;;
12476;SDS011;6303;51.504;6.300;2023-10-08T00:04:51;1.98;;;1.88;;
12476;SDS011;6303;51.504;6.300;2023-10-08T00:07:19;1.92;;;1.60;;
12476;SDS011;6303;51.504;6.300;2023-10-08T00:09:50;2.10;;;1.70;;
12476;SDS011;6303;51.504;6.300;2023-10-08T00:12:18;1.80;;;1.60;;
12476;SDS011;6303;51.504;6.300;2023-10-08T00:14:47;1.70;;;1.60;;
12476;SDS011;6303;51.504;6.300;2023-10-08T00:17:18;1.70;;;1.60;;
12476;SDS011;6303;51.504;6.300;2023-10-08T00:19:46;1.60;;;1.50;;
12476;SDS011;6303;51.504;6.300;2023-10-08T00:22:17;2.30;;;1.90;;
12476;SDS011;6303;51.504;6.300;2023-10-08T00:24:45;2.00;;;1.80;;
12476;SDS011;6303;51.504;6.300;2023-10-08T00:27:14;2.22;;;1.85;;
12476;SDS011;6303;51.504;6.300;2023-10-08T00:29:43;1.90;;;1.80;;
12476;SDS011;6303;51.504;6.300;2023-10-08T00:32:11;2.08;;;1.90;;
12476;SDS011;6303;51.504;6.300;2023-10-08T00:34:40;1.90;;;1.80;;
12476;SDS011;6303;51.504;6.300;2023-10-08T00:37:08;1.63;;;1.52;;
12476;SDS011;6303;51.504;6.300;2023-10-08T00:39:39;2.30;;;2.10;;
12476;SDS011;6303;51.504;6.300;2023-10-08T00:42:07;2.15;;;1.95;;
12476;SDS011;6303;51.504;6.300;2023-10-08T00:44:34;2.50;;;2.08;;
12476;SDS011;6303;51.504;6.300;2023-10-08T00:47:06;2.00;;;1.80;;
12476;SDS011;6303;51.504;6.300;2023-10-08T00:49:37;2.25;;;1.73;;
12476;SDS011;6303;51.504;6.300;2023-10-08T00:52:33;1.70;;;1.60;;
12476;SDS011;6303;51.504;6.300;2023-10-08T00:55:22;1.75;;;1.65;;
12476;SDS011;6303;51.504;6.300;2023-10-08T00:57:55;2.10;;;1.90;;
12476;SDS011;6303;51.504;6.300;2023-10-08T01:00:33;1.80;;;1.70;;
12476;SDS011;6303;51.504;6.300;2023-10-08T01:03:06;1.73;;;1.63;;
12476;SDS011;6303;51.504;6.300;2023-10-08T01:05:41;2.30;;;1.95;;
12476;SDS011;6303;51.504;6.300;2023-10-08T01:08:12;2.42;;;1.90;;
12476;SDS011;6303;51.504;6.300;2023-10-08T01:10:44;1.75;;;1.60;;
12476;SDS011;6303;51.504;6.300;2023-10-08T01:13:12;1.83;;;1.73;;
12476;SDS011;6303;51.504;6.300;2023-10-08T01:15:44;1.90;;;1.70;;
12476;SDS011;6303;51.504;6.300;2023-10-08T01:18:16;2.00;;;1.77;;
12476;SDS011;6303;51.504;6.300;2023-10-08T01:20:52;2.13;;;1.92;;
12476;SDS011;6303;51.504;6.300;2023-10-08T01:23:20;2.08;;;1.88;;
12476;SDS011;6303;51.504;6.300;2023-10-08T01:25:52;2.53;;;1.95;;
12476;SDS011;6303;51.504;6.300;2023-10-08T01:28:26;1.98;;;1.60;;
12476;SDS011;6303;51.504;6.300;2023-10-08T01:30:54;1.70;;;1.60;;
12476;SDS011;6303;51.504;6.300;2023-10-08T01:33:25;1.80;;;1.70;;
12476;SDS011;6303;51.504;6.300;2023-10-08T01:35:53;1.73;;;1.63;;
12476;SDS011;6303;51.504;6.300;2023-10-08T01:38:28;2.00;;;1.70;;
12476;SDS011;6303;51.504;6.300;2023-10-08T01:40:56;2.25;;;1.90;;
12476;SDS011;6303;51.504;6.300;2023-10-08T01:43:28;2.10;;;1.90;;
12476;SDS011;6303;51.504;6.300;2023-10-08T01:45:55;1.88;;;1.77;;
12476;SDS011;6303;51.504;6.300;2023-10-08T01:48:23;2.10;;;1.90;;
12476;SDS011;6303;51.504;6.300;2023-10-08T01:50:54;1.77;;;1.67;;
12476;SDS011;6303;51.504;6.300;2023-10-08T01:53:27;2.28;;;1.80;;
12476;SDS011;6303;51.504;6.300;2023-10-08T01:55:56;1.92;;;1.73;;
12476;SDS011;6303;51.504;6.300;2023-10-08T01:58:23;1.77;;;1.67;;
12476;SDS011;6303;51.504;6.300;2023-10-08T02:00:50;1.92;;;1.75;;
12476;SDS011;6303;51.504;6.300;2023-10-08T02:03:23;2.38;;;1.80;;
12476;SDS011;6303;51.504;6.300;2023-10-08T02:05:51;1.80;;;1.70;;
12476;SDS011;6303;51.504;6.300;2023-10-08T02:08:19;1.90;;;1.70;;
12476;SDS011;6303;51.504;6.300;2023-10-08T02:10:51;2.10;;;1.90;;
12476;SDS011;6303;51.504;6.300;2023-10-08T02:13:18;1.92;;;1.83;;
12476;SDS011;6303;51.504;6.300;2023-10-08T02:15:48;1.85;;;1.75;;
12476;SDS011;6303;51.504;6.300;2023-10-08T02:18:18;2.08;;;1.88;;
12476;SDS011;6303;51.504;6.300;2023-10-08T02:20:46;2.20;;;1.70;;
12476;SDS011;6303;51.504;6.300;2023-10-08T02:23:13;2.15;;;1.80;;
12476;SDS011;6303;51.504;6.300;2023-10-08T02:25:40;2.45;;;1.90;;
12476;SDS011;6303;51.504;6.300;2023-10-08T02:28:09;2.20;;;2.00;;
12476;SDS011;6303;51.504;6.300;2023-10-08T02:30:40;2.15;;;1.95;;
12476;SDS011;6303;51.504;6.300;2023-10-08T02:33:08;1.95;;;1.58;;
12476;SDS011;6303;51.504;6.300;2023-10-08T02:35:40;1.70;;;1.60;;
12476;SDS011;6303;51.504;6.300;2023-10-08T02:38:09;1.90;;;1.75;;
12476;SDS011;6303;51.504;6.300;2023-10-08T02:40:38;2.40;;;1.80;;
12476;SDS011;6303;51.504;6.300;2023-10-08T02:43:11;1.60;;;1.50;;
12476;SDS011;6303;51.504;6.300;2023-10-08T02:45:39;1.98;;;1.77;;
12476;SDS011;6303;51.504;6.300;2023-10-08T02:48:07;1.70;;;1.60;;
12476;SDS011;6303;51.504;6.300;2023-10-08T02:50:37;2.13;;;1.63;;
12476;SDS011;6303;51.504;6.300;2023-10-08T02:53:06;2.10;;;1.80;;
12476;SDS011;6303;51.504;6.300;2023-10-08T02:55:36;2.08;;;1.80;;
12476;SDS011;6303;51.504;6.300;2023-10-08T02:58:07;1.80;;;1.70;;
12476;SDS011;6303;51.504;6.300;2023-10-08T03:00:40;2.10;;;1.90;;
12476;SDS011;6303;51.504;6.300;2023-10-08T03:03:08;2.20;;;1.90;;
12476;SDS011;6303;51.504;6.300;2023-10-08T03:05:41;1.98;;;1.80;;
12476;SDS011;6303;51.504;6.300;2023-10-08T03:08:13;1.98;;;1.77;;
12476;SDS011;6303;51.504;6.300;2023-10-08T03:10:44;2.60;;;1.95;;
12476;SDS011;6303;51.504;6.300;2023-10-08T03:13:13;2.00;;;1.80;;
12476;SDS011;6303;51.504;6.300;2023-10-08T03:15:43;1.75;;;1.63;;
12476;SDS011;6303;51.504;6.300;2023-10-08T03:18:23;2.85;;;1.60;;
12476;SDS011;6303;51.504;6.300;2023-10-08T03:20:50;2.25;;;2.03;;
12476;SDS011;6303;51.504;6.300;2023-10-08T03:23:18;1.83;;;1.70;;
12476;SDS011;6303;51.504;6.300;2023-10-08T03:25:59;2.08;;;1.88;;
12476;SDS011;6303;51.504;6.300;2023-10-08T03:28:36;1.83;;;1.70;;
12476;SDS011;6303;51.504;6.300;2023-10-08T03:31:07;1.80;;;1.70;;
12476;SDS011;6303;51.504;6.300;2023-10-08T03:33:42;2.00;;;1.80;;
12476;SDS011;6303;51.504;6.300;2023-10-08T03:36:14;1.75;;;1.52;;
12476;SDS011;6303;51.504;6.300;2023-10-08T03:38:46;2.08;;;1.77;;
12476;SDS011;6303;51.504;6.300;2023-10-08T03:41:17;2.17;;;1.80;;
12476;SDS011;6303;51.504;6.300;2023-10-08T03:43:52;2.00;;;1.80;;
12476;SDS011;6303;51.504;6.300;2023-10-08T03:46:27;1.90;;;1.70;;
12476;SDS011;6303;51.504;6.300;2023-10-08T03:48:55;2.33;;;1.98;;
12476;SDS011;6303;51.504;6.300;2023-10-08T03:51:23;2.03;;;1.83;;
12476;SDS011;6303;51.504;6.300;2023-10-08T03:53:52;1.80;;;1.70;;
12476;SDS011;6303;51.504;6.300;2023-10-08T03:56:35;2.45;;;1.98;;
12476;SDS011;6303;51.504;6.300;2023-10-08T03:59:03;2.22;;;1.70;;
12476;SDS011;6303;51.504;6.300;2023-10-08T04:01:39;1.92;;;1.80;;
12476;SDS011;6303;51.504;6.300;2023-10-08T04:04:07;2.55;;;2.20;;
12476;SDS011;6303;51.504;6.300;2023-10-08T04:06:38;2.05;;;1.70;;
12476;SDS011;6303;51.504;6.300;2023-10-08T04:09:12;2.35;;;1.92;;
12476;SDS011;6303;51.504;6.300;2023-10-08T04:11:49;2.22;;;1.85;;
12476;SDS011;6303;51.504;6.300;2023-10-08T04:14:21;2.35;;;2.10;;
12476;SDS011;6303;51.504;6.300;2023-10-08T04:16:51;2.13;;;1.80;;
12476;SDS011;6303;51.504;6.300;2023-10-08T04:19:19;1.88;;;1.77;;
12476;SDS011;6303;51.504;6.300;2023-10-08T04:21:52;1.95;;;1.75;;
12476;SDS011;6303;51.504;6.300;2023-10-08T04:24:20;2.00;;;1.80;;
12476;SDS011;6303;51.504;6.300;2023-10-08T04:26:54;2.03;;;1.80;;
12476;SDS011;6303;51.504;6.300;2023-10-08T04:29:28;2.17;;;1.88;;
12476;SDS011;6303;51.504;6.300;2023-10-08T04:31:59;2.20;;;1.92;;
12476;SDS011;6303;51.504;6.300;2023-10-08T04:34:34;1.80;;;1.70;;
12476;SDS011;6303;51.504;6.300;2023-10-08T04:37:02;1.90;;;1.80;;
12476;SDS011;6303;51.504;6.300;2023-10-08T04:39:37;2.45;;;1.90;;
12476;SDS011;6303;51.504;6.300;2023-10-08T04:42:06;2.08;;;1.92;;
12476;SDS011;6303;51.504;6.300;2023-10-08T04:44:36;1.73;;;1.63;;
12476;SDS011;6303;51.504;6.300;2023-10-08T04:47:06;2.05;;;1.90;;
12476;SDS011;6303;51.504;6.300;2023-10-08T04:49:34;2.03;;;1.80;;
12476;SDS011;6303;51.504;6.300;2023-10-08T04:52:10;1.70;;;1.60;;
12476;SDS011;6303;51.504;6.300;2023-10-08T04:54:40;2.17;;;1.98;;
12476;SDS011;6303;51.504;6.300;2023-10-08T04:57:16;2.30;;;1.80;;
12476;SDS011;6303;51.504;6.300;2023-10-08T04:59:47;2.08;;;1.88;;
12476;SDS011;6303;51.504;6.300;2023-10-08T05:02:17;2.00;;;1.90;;
12476;SDS011;6303;51.504;6.300;2023-10-08T05:04:59;1.70;;;1.60;;
12476;SDS011;6303;51.504;6.300;2023-10-08T05:07:48;2.10;;;1.80;;
12476;SDS011;6303;51.504;6.300;2023-10-08T05:10:29;2.28;;;1.90;;
12476;SDS011;6303;51.504;6.300;2023-10-08T05:13:10;2.20;;;1.92;;
12476;SDS011;6303;51.504;6.300;2023-10-08T05:15:42;2.10;;;1.90;;
12476;SDS011;6303;51.504;6.300;2023-10-08T05:18:29;1.80;;;1.70;;
12476;SDS011;6303;51.504;6.300;2023-10-08T05:21:19;2.00;;;1.80;;
12476;SDS011;6303;51.504;6.300;2023-10-08T05:23:53;1.88;;;1.77;;
12476;SDS011;6303;51.504;6.300;2023-10-08T05:26:35;1.75;;;1.65;;
12476;SDS011;6303;51.504;6.300;2023-10-08T05:29:10;1.83;;;1.73;;
12476;SDS011;6303;51.504;6.300;2023-10-08T05:32:17;2.00;;;1.80;;
12476;SDS011;6303;51.504;6.300;2023-10-08T05:35:06;2.38;;;2.17;;
12476;SDS011;6303;51.504;6.300;2023-10-08T05:37:50;1.80;;;1.70;;
12476;SDS011;6303;51.504;6.300;2023-10-08T05:40:38;2.13;;;1.92;;
12476;SDS011;6303;51.504;6.300;2023-10-08T05:43:29;2.28;;;1.80;;
12476;SDS011;6303;51.504;6.300;2023-10-08T05:46:14;1.80;;;1.70;;
12476;SDS011;6303;51.504;6.300;2023-10-08T05:49:04;1.77;;;1.67;;
12476;SDS011;6303;51.504;6.300;2023-10-08T05:51:52;1.80;;;1.70;;
12476;SDS011;6303;51.504;6.300;2023-10-08T05:54:37;2.13;;;1.92;;
12476;SDS011;6303;51.504;6.300;2023-10-08T05:57:22;1.70;;;1.60;;
12476;SDS011;6303;51.504;6.300;2023-10-08T06:00:04;2.10;;;1.90;;
12476;SDS011;6303;51.504;6.300;2023-10-08T06:03:07;2.17;;;1.98;;
12476;SDS011;6303;51.504;6.300;2023-10-08T06:05:46;2.10;;;1.85;;
12476;SDS011;6303;51.504;6.300;2023-10-08T06:08:33;2.00;;;1.80;;
12476;SDS011;6303;51.504;6.300;2023-10-08T06:11:15;1.77;;;1.67;;
12476;SDS011;6303;51.504;6.300;2023-10-08T06:13:53;2.00;;;1.80;;
12476;SDS011;6303;51.504;6.300;2023-10-08T06:16:25;2.33;;;1.90;;
12476;SDS011;6303;51.504;6.300;2023-10-08T06:19:06;2.05;;;1.85;;
12476;SDS011;6303;51.504;6.300;2023-10-08T06:21:34;1.80;;;1.70;;
12476;SDS011;6303;51.504;6.300;2023-10-08T06:24:05;2.20;;;1.75;;
12476;SDS011;6303;51.504;6.300;2023-10-08T06:26:36;1.80;;;1.70;;
12476;SDS011;6303;51.504;6.300;2023-10-08T06:29:08;2.33;;;1.90;;
12476;SDS011;6303;51.504;6.300;2023-10-08T06:31:51;2.30;;;2.05;;
12476;SDS011;6303;51.504;6.300;2023-10-08T06:34:20;1.83;;;1.73;;
12476;SDS011;6303;51.504;6.300;2023-10-08T06:36:49;1.90;;;1.80;;
12476;SDS011;6303;51.504;6.300;2023-10-08T06:39:20;2.25;;;2.00;;
12476;SDS011;6303;51.504;6.300;2023-10-08T06:41:52;1.90;;;1.80;;
12476;SDS011;6303;51.504;6.300;2023-10-08T06:44:26;2.03;;;1.83;;
12476;SDS011;6303;51.504;6.300;2023-10-08T06:46:54;1.92;;;1.60;;
12476;SDS011;6303;51.504;6.300;2023-10-08T06:49:23;1.92;;;1.73;;
12476;SDS011;6303;51.504;6.300;2023-10-08T06:51:51;2.00;;;1.80;;
12476;SDS011;6303;51.504;6.300;2023-10-08T06:54:19;2.00;;;1.80;;
12476;SDS011;6303;51.504;6.300;2023-10-08T06:56:47;1.80;;;1.70;;
12476;SDS011;6303;51.504;6.300;2023-10-08T06:59:17;1.80;;;1.70;;
12476;SDS011;6303;51.504;6.300;2023-10-08T07:01:46;2.10;;;1.75;;
12476;SDS011;6303;51.504;6.300;2023-10-08T07:04:16;2.22;;;1.95;;
12476;SDS011;6303;51.504;6.300;2023-10-08T07:06:44;2.15;;;1.80;;
12476;SDS011;6303;51.504;6.300;2023-10-08T07:09:12;2.20;;;1.95;;
12476;SDS011;6303;51.504;6.300;2023-10-08T07:11:49;2.03;;;1.83;;
12476;SDS011;6303;51.504;6.300;2023-10-08T07:14:20;2.08;;;1.83;;
12476;SDS011;6303;51.504;6.300;2023-10-08T07:16:52;2.10;;;1.90;;
12476;SDS011;6303;51.504;6.300;2023-10-08T07:19:20;1.92;;;1.80;;
12476;SDS011;6303;51.504;6.300;2023-10-08T07:21:58;2.38;;;1.90;;
12476;SDS011;6303;51.504;6.300;2023-10-08T07:24:31;2.13;;;1.92;;
12476;SDS011;6303;51.504;6.300;2023-10-08T07:27:02;1.90;;;1.70;;
12476;SDS011;6303;51.504;6.300;2023-10-08T07:29:34;2.03;;;1.90;;
12476;SDS011;6303;51.504;6.300;2023-10-08T07:32:02;2.17;;;1.98;;
12476;SDS011;6303;51.504;6.300;2023-10-08T07:34:35;2.15;;;1.80;;
12476;SDS011;6303;51.504;6.300;2023-10-08T07:37:02;1.95;;;1.70;;
12476;SDS011;6303;51.504;6.300;2023-10-08T07:39:31;2.28;;;1.83;;
12476;SDS011;6303;51.504;6.300;2023-10-08T07:42:03;1.92;;;1.83;;
12476;SDS011;6303;51.504;6.300;2023-10-08T07:44:34;2.10;;;1.88;;
12476;SDS011;6303;51.504;6.300;2023-10-08T07:47:04;1.90;;;1.80;;
12476;SDS011;6303;51.504;6.300;2023-10-08T07:49:35;2.08;;;1.85;;
12476;SDS011;6303;51.504;6.300;2023-10-08T07:52:02;2.15;;;1.95;;
12476;SDS011;6303;51.504;6.300;2023-10-08T07:54:30;1.80;;;1.70;;
12476;SDS011;6303;51.504;6.300;2023-10-08T07:56:59;2.28;;;2.08;;
12476;SDS011;6303;51.504;6.300;2023-10-08T07:59:36;2.10;;;1.90;;
12476;SDS011;6303;51.504;6.300;2023-10-08T08:02:08;1.95;;;1.80;;
12476;SDS011;6303;51.504;6.300;2023-10-08T08:04:36;2.25;;;2.05;;
12476;SDS011;6303;51.504;6.300;2023-10-08T08:07:05;2.25;;;2.05;;
12476;SDS011;6303;51.504;6.300;2023-10-08T08:09:32;1.80;;;1.70;;
12476;SDS011;6303;51.504;6.300;2023-10-08T08:12:04;2.75;;;1.80;;
12476;SDS011;6303;51.504;6.300;2023-10-08T08:14:37;2.00;;;1.80;;
12476;SDS011;6303;51.504;6.300;2023-10-08T08:17:06;2.20;;;2.00;;
12476;SDS011;6303;51.504;6.300;2023-10-08T08:19:39;4.30;;;2.22;;
12476;SDS011;6303;51.504;6.300;2023-10-08T08:22:06;5.53;;;3.45;;
12476;SDS011;6303;51.504;6.300;2023-10-08T08:24:34;8.25;;;4.75;;
12476;SDS011;6303;51.504;6.300;2023-10-08T08:27:02;8.57;;;5.30;;
12476;SDS011;6303;51.504;6.300;2023-10-08T08:29:37;8.02;;;5.30;;
12476;SDS011;6303;51.504;6.300;2023-10-08T08:32:10;12.98;;;6.05;;
12476;SDS011;6303;51.504;6.300;2023-10-08T08:34:40;12.65;;;5.82;;
12476;SDS011;6303;51.504;6.300;2023-10-08T08:37:09;12.32;;;6.35;;
12476;SDS011;6303;51.504;6.300;2023-10-08T08:39:37;10.55;;;6.70;;
12476;SDS011;6303;51.504;6.300;2023-10-08T08:42:04;12.23;;;7.10;;
12476;SDS011;6303;51.504;6.300;2023-10-08T08:44:32;12.32;;;6.78;;
12476;SDS011;6303;51.504;6.300;2023-10-08T08:47:06;13.20;;;6.32;;
12476;SDS011;6303;51.504;6.300;2023-10-08T08:49:36;13.13;;;6.53;;
12476;SDS011;6303;51.504;6.300;2023-10-08T08:52:04;10.93;;;5.60;;
12476;SDS011;6303;51.504;6.300;2023-10-08T08:54:31;12.77;;;6.20;;
12476;SDS011;6303;51.504;6.300;2023-10-08T08:56:58;12.18;;;5.45;;
12476;SDS011;6303;51.504;6.300;2023-10-08T08:59:29;15.25;;;5.68;;
12476;SDS011;6303;51.504;6.300;2023-10-08T09:01:57;12.00;;;5.55;;
12476;SDS011;6303;51.504;6.300;2023-10-08T09:04:30;17.55;;;5.30;;
12476;SDS011;6303;51.504;6.300;2023-10-08T09:06:58;11.38;;;5.07;;
12476;SDS011;6303;51.504;6.300;2023-10-08T09:09:32;11.60;;;5.90;;
12476;SDS011;6303;51.504;6.300;2023-10-08T09:12:00;11.15;;;5.72;;
12476;SDS011;6303;51.504;6.300;2023-10-08T09:14:30;13.13;;;6.00;;
12476;SDS011;6303;51.504;6.300;2023-10-08T09:16:59;12.82;;;5.38;;
12476;SDS011;6303;51.504;6.300;2023-10-08T09:19:35;12.65;;;5.53;;
12476;SDS011;6303;51.504;6.300;2023-10-08T09:22:03;10.88;;;6.03;;
12476;SDS011;6303;51.504;6.300;2023-10-08T09:24:32;11.60;;;6.07;;
12476;SDS011;6303;51.504;6.300;2023-10-08T09:27:02;12.77;;;5.97;;
12476;SDS011;6303;51.504;6.300;2023-10-08T09:29:29;10.93;;;5.82;;
12476;SDS011;6303;51.504;6.300;2023-10-08T09:31:57;13.45;;;6.40;;
12476;SDS011;6303;51.504;6.300;2023-10-08T09:34:26;11.23;;;6.35;;
12476;SDS011;6303;51.504;6.300;2023-10-08T09:36:56;16.02;;;6.75;;
12476;SDS011;6303;51.504;6.300;2023-10-08T09:39:26;11.13;;;5.57;;
12476;SDS011;6303;51.504;6.300;2023-10-08T09:41:55;14.18;;;5.43;;
12476;SDS011;6303;51.504;6.300;2023-10-08T09:44:24;9.23;;;4.93;;
12476;SDS011;6303;51.504;6.300;2023-10-08T09:46:52;10.63;;;4.82;;
12476;SDS011;6303;51.504;6.300;2023-10-08T09:49:31;11.57;;;4.60;;
12476;SDS011;6303;51.504;6.300;2023-10-08T09:52:01;8.38;;;4.32;;
12476;SDS011;6303;51.504;6.300;2023-10-08T09:54:31;8.70;;;4.07;;
12476;SDS011;6303;51.504;6.300;2023-10-08T09:57:05;8.18;;;4.50;;
12476;SDS011;6303;51.504;6.300;2023-10-08T09:59:33;8.98;;;4.35;;
12476;SDS011;6303;51.504;6.300;2023-10-08T10:02:01;8.60;;;3.60;;
12476;SDS011;6303;51.504;6.300;2023-10-08T10:04:30;7.50;;;3.85;;
12476;SDS011;6303;51.504;6.300;2023-10-08T10:07:08;6.72;;;3.85;;
12476;SDS011;6303;51.504;6.300;2023-10-08T10:09:38;6.88;;;3.55;;
12476;SDS011;6303;51.504;6.300;2023-10-08T10:12:09;4.85;;;3.33;;
12476;SDS011;6303;51.504;6.300;2023-10-08T10:14:41;7.32;;;3.15;;
12476;SDS011;6303;51.504;6.300;2023-10-08T10:17:09;4.93;;;3.40;;
12476;SDS011;6303;51.504;6.300;2023-10-08T10:19:40;4.53;;;2.72;;
12476;SDS011;6303;51.504;6.300;2023-10-08T10:22:12;6.72;;;3.58;;
12476;SDS011;6303;51.504;6.300;2023-10-08T10:24:41;6.28;;;3.08;;
12476;SDS011;6303;51.504;6.300;2023-10-08T10:27:14;5.53;;;3.10;;
12476;SDS011;6303;51.504;6.300;2023-10-08T10:29:43;7.88;;;3.40;;
12476;SDS011;6303;51.504;6.300;2023-10-08T10:32:13;4.38;;;3.05;;
12476;SDS011;6303;51.504;6.300;2023-10-08T10:34:41;4.75;;;2.95;;
12476;SDS011;6303;51.504;6.300;2023-10-08T10:37:09;3.20;;;2.70;;
12476;SDS011;6303;51.504;6.300;2023-10-08T10:39:51;4.80;;;3.13;;
12476;SDS011;6303;51.504;6.300;2023-10-08T10:42:20;5.82;;;3.55;;
12476;SDS011;6303;51.504;6.300;2023-10-08T10:44:48;4.80;;;2.95;;
12476;SDS011;6303;51.504;6.300;2023-10-08T10:47:17;3.92;;;2.70;;
12476;SDS011;6303;51.504;6.300;2023-10-08T10:49:53;4.95;;;2.88;;
12476;SDS011;6303;51.504;6.300;2023-10-08T10:52:41;5.50;;;3.00;;
12476;SDS011;6303;51.504;6.300;2023-10-08T10:55:13;3.63;;;2.80;;
12476;SDS011;6303;51.504;6.300;2023-10-08T10:57:57;3.90;;;2.75;;
12476;SDS011;6303;51.504;6.300;2023-10-08T11:00:30;4.65;;;2.90;;
12476;SDS011;6303;51.504;6.300;2023-10-08T11:03:22;4.45;;;3.08;;
12476;SDS011;6303;51.504;6.300;2023-10-08T11:05:50;5.40;;;3.33;;
12476;SDS011;6303;51.504;6.300;2023-10-08T11:08:21;6.25;;;3.22;;
12476;SDS011;6303;51.504;6.300;2023-10-08T11:10:51;3.65;;;3.30;;
12476;SDS011;6303;51.504;6.300;2023-10-08T11:13:24;4.97;;;3.17;;
12476;SDS011;6303;51.504;6.300;2023-10-08T11:15:54;4.80;;;3.67;;
12476;SDS011;6303;51.504;6.300;2023-10-08T11:18:23;4.82;;;3.65;;
12476;SDS011;6303;51.504;6.300;2023-10-08T11:20:53;4.32;;;3.42;;
12476;SDS011;6303;51.504;6.300;2023-10-08T11:23:41;4.35;;;3.05;;
12476;SDS011;6303;51.504;6.300;2023-10-08T11:26:10;5.40;;;3.78;;
12476;SDS011;6303;51.504;6.300;2023-10-08T11:28:40;5.32;;;3.53;;
12476;SDS011;6303;51.504;6.300;2023-10-08T11:31:10;5.80;;;3.85;;
12476;SDS011;6303;51.504;6.300;2023-10-08T11:33:40;4.45;;;3.58;;
12476;SDS011;6303;51.504;6.300;2023-10-08T11:36:08;4.63;;;3.55;;
12476;SDS011;6303;51.504;6.300;2023-10-08T11:38:43;4.68;;;3.45;;
12476;SDS011;6303;51.504;6.300;2023-10-08T11:41:15;5.57;;;3.83;;
12476;SDS011;6303;51.504;6.300;2023-10-08T11:43:53;5.50;;;3.60;;
12476;SDS011;6303;51.504;6.300;2023-10-08T11:46:23;5.20;;;3.63;;
12476;SDS011;6303;51.504;6.300;2023-10-08T11:48:58;4.45;;;3.63;;
12476;SDS011;6303;51.504;6.300;2023-10-08T11:51:30;4.30;;;3.80;;
12476;SDS011;6303;51.504;6.300;2023-10-08T11:53:58;4.38;;;3.58;;
12476;SDS011;6303;51.504;6.300;2023-10-08T11:56:27;5.25;;;3.92;;
12476;SDS011;6303;51.504;6.300;2023-10-08T11:58:55;5.03;;;3.78;;
12476;SDS011;6303;51.504;6.300;2023-10-08T12:01:23;4.55;;;4.05;;
12476;SDS011;6303;51.504;6.300;2023-10-08T12:03:52;5.65;;;4.10;;
12476;SDS011;6303;51.504;6.300;2023-10-08T12:06:24;4.72;;;4.00;;
12476;SDS011;6303;51.504;6.300;2023-10-08T12:08:54;4.25;;;3.55;;
12476;SDS011;6303;51.504;6.300;2023-10-08T12:11:24;4.55;;;3.92;;
12476;SDS011;6303;51.504;6.300;2023-10-08T12:13:57;5.32;;;4.43;;
12476;SDS011;6303;51.504;6.300;2023-10-08T12:16:25;5.15;;;4.13;;
12476;SDS011;6303;51.504;6.300;2023-10-08T12:18:55;5.93;;;4.15;;
12476;SDS011;6303;51.504;6.300;2023-10-08T12:21:25;5.32;;;4.13;;
12476;SDS011;6303;51.504;6.300;2023-10-08T12:23:54;5.57;;;4.50;;
12476;SDS011;6303;51.504;6.300;2023-10-08T12:26:22;4.45;;;4.05;;
12476;SDS011;6303;51.504;6.300;2023-10-08T12:28:49;5.50;;;4.25;;
12476;SDS011;6303;51.504;6.300;2023-10-08T12:31:18;5.07;;;4.38;;
12476;SDS011;6303;51.504;6.300;2023-10-08T12:33:47;5.00;;;4.50;;
12476;SDS011;6303;51.504;6.300;2023-10-08T12:36:16;5.18;;;4.68;;
12476;SDS011;6303;51.504;6.300;2023-10-08T12:38:48;6.38;;;4.50;;
12476;SDS011;6303;51.504;6.300;2023-10-08T12:41:22;6.25;;;4.55;;
12476;SDS011;6303;51.504;6.300;2023-10-08T12:43:50;5.78;;;4.70;;
12476;SDS011;6303;51.504;6.300;2023-10-08T12:46:20;5.38;;;4.55;;
12476;SDS011;6303;51.504;6.300;2023-10-08T12:48:50;5.53;;;4.72;;
12476;SDS011;6303;51.504;6.300;2023-10-08T12:51:19;5.22;;;4.60;;
12476;SDS011;6303;51.504;6.300;2023-10-08T12:53:49;5.97;;;4.88;;
12476;SDS011;6303;51.504;6.300;2023-10-08T12:56:24;4.68;;;4.28;;
12476;SDS011;6303;51.504;6.300;2023-10-08T12:58:57;5.22;;;4.72;;
12476;SDS011;6303;51.504;6.300;2023-10-08T13:01:26;5.07;;;4.57;;
12476;SDS011;6303;51.504;6.300;2023-10-08T13:03:54;5.00;;;4.32;;
12476;SDS011;6303;51.504;6.300;2023-10-08T13:06:26;5.30;;;4.40;;
12476;SDS011;6303;51.504;6.300;2023-10-08T13:08:55;4.90;;;4.47;;
12476;SDS011;6303;51.504;6.300;2023-10-08T13:11:22;5.00;;;4.43;;
12476;SDS011;6303;51.504;6.300;2023-10-08T13:13:51;4.80;;;4.30;;
12476;SDS011;6303;51.504;6.300;2023-10-08T13:16:22;6.38;;;5.10;;
12476;SDS011;6303;51.504;6.300;2023-10-08T13:18:51;5.63;;;4.68;;
12476;SDS011;6303;51.504;6.300;2023-10-08T13:21:22;14.73;;;6.45;;
12476;SDS011;6303;51.504;6.300;2023-10-08T13:23:50;13.07;;;8.73;;
12476;SDS011;6303;51.504;6.300;2023-10-08T13:26:17;13.20;;;10.35;;
12476;SDS011;6303;51.504;6.300;2023-10-08T13:28:48;15.80;;;11.25;;
12476;SDS011;6303;51.504;6.300;2023-10-08T13:31:15;14.30;;;10.88;;
12476;SDS011;6303;51.504;6.300;2023-10-08T13:33:44;12.48;;;9.38;;
12476;SDS011;6303;51.504;6.300;2023-10-08T13:36:15;13.15;;;8.48;;
12476;SDS011;6303;51.504;6.300;2023-10-08T13:38:42;9.70;;;8.02;;
12476;SDS011;6303;51.504;6.300;2023-10-08T13:41:11;11.70;;;8.27;;
12476;SDS011;6303;51.504;6.300;2023-10-08T13:43:41;8.90;;;7.63;;
12476;SDS011;6303;51.504;6.300;2023-10-08T13:46:11;8.32;;;7.13;;
12476;SDS011;6303;51.504;6.300;2023-10-08T13:48:39;9.48;;;7.28;;
12476;SDS011;6303;51.504;6.300;2023-10-08T13:51:07;9.00;;;7.13;;
12476;SDS011;6303;51.504;6.300;2023-10-08T13:53:40;9.48;;;7.38;;
12476;SDS011;6303;51.504;6.300;2023-10-08T13:56:10;8.57;;;7.30;;
12476;SDS011;6303;51.504;6.300;2023-10-08T13:58:39;7.63;;;6.82;;
12476;SDS011;6303;51.504;6.300;2023-10-08T14:01:11;9.70;;;7.50;;
12476;SDS011;6303;51.504;6.300;2023-10-08T14:03:45;15.68;;;8.10;;
12476;SDS011;6303;51.504;6.300;2023-10-08T14:06:13;24.90;;;8.13;;
12476;SDS011;6303;51.504;6.300;2023-10-08T14:08:43;11.52;;;7.28;;
12476;SDS011;6303;51.504;6.300;2023-10-08T14:11:17;9.52;;;7.30;;
12476;SDS011;6303;51.504;6.300;2023-10-08T14:13:44;12.65;;;7.63;;
12476;SDS011;6303;51.504;6.300;2023-10-08T14:16:13;14.32;;;7.63;;
12476;SDS011;6303;51.504;6.300;2023-10-08T14:18:43;11.35;;;7.30;;
12476;SDS011;6303;51.504;6.300;2023-10-08T14:21:19;11.15;;;7.50;;
12476;SDS011;6303;51.504;6.300;2023-10-08T14:23:50;13.98;;;7.43;;
12476;SDS011;6303;51.504;6.300;2023-10-08T14:26:18;19.65;;;8.32;;
12476;SDS011;6303;51.504;6.300;2023-10-08T14:28:48;10.15;;;5.75;;
12476;SDS011;6303;51.504;6.300;2023-10-08T14:31:18;7.45;;;5.30;;
12476;SDS011;6303;51.504;6.300;2023-10-08T14:33:48;11.07;;;5.10;;
12476;SDS011;6303;51.504;6.300;2023-10-08T14:36:31;8.82;;;5.93;;
12476;SDS011;6303;51.504;6.300;2023-10-08T14:41:59;10.68;;;6.00;;
12476;SDS011;6303;51.504;6.300;2023-10-08T14:44:43;11.68;;;7.45;;
12476;SDS011;6303;51.504;6.300;2023-10-08T14:47:12;16.70;;;8.88;;
12476;SDS011;6303;51.504;6.300;2023-10-08T14:49:40;15.57;;;8.38;;
12476;SDS011;6303;51.504;6.300;2023-10-08T14:52:09;13.05;;;8.57;;
12476;SDS011;6303;51.504;6.300;2023-10-08T14:54:36;15.20;;;8.50;;
12476;SDS011;6303;51.504;6.300;2023-10-08T14:57:06;13.88;;;9.07;;
12476;SDS011;6303;51.504;6.300;2023-10-08T14:59:35;12.93;;;8.82;;
12476;SDS011;6303;51.504;6.300;2023-10-08T15:02:02;14.20;;;8.32;;
12476;SDS011;6303;51.504;6.300;2023-10-08T15:04:32;15.07;;;9.65;;
12476;SDS011;6303;51.504;6.300;2023-10-08T15:07:04;15.18;;;10.20;;
12476;SDS011;6303;51.504;6.300;2023-10-08T15:09:34;17.58;;;10.10;;
12476;SDS011;6303;51.504;6.300;2023-10-08T15:12:01;15.40;;;9.10;;
12476;SDS011;6303;51.504;6.300;2023-10-08T15:14:30;14.00;;;8.60;;
12476;SDS011;6303;51.504;6.300;2023-10-08T15:16:58;13.48;;;8.85;;
12476;SDS011;6303;51.504;6.300;2023-10-08T15:19:26;15.40;;;9.32;;
12476;SDS011;6303;51.504;6.300;2023-10-08T15:21:54;15.15;;;9.40;;
12476;SDS011;6303;51.504;6.300;2023-10-08T15:24:23;14.90;;;9.15;;
12476;SDS011;6303;51.504;6.300;2023-10-08T15:26:50;11.48;;;8.43;;
12476;SDS011;6303;51.504;6.300;2023-10-08T15:29:18;12.27;;;8.43;;